Time;durP1;ratioP1;P1;durP2;ratioP2;P2;SDS_P1;SDS_P2;PMS_P1;PMS_P2;Temp;Humidity;BMP_temperature;BMP_pressure;BME280_temperature;BME280_humidity;BME280_pressure;Samples;Min_cycle;Max_cycle;Signal;HPM_P1;HPM_P2
2023/12/17 00:00:22;;;;;;;35.67;22.33;;;;;;;8.56;100.00;103656.72;4909033;29;20032;-80
2023/12/17 00:02:48;;;;;;;37.22;25.08;;;;;;;8.56;100.00;103656.72;4897243;29;20039;-84
2023/12/17 00:05:13;;;;;;;36.60;23.85;;;;;;;8.57;100.00;103644.19;4881282;29;20470;-83
2023/12/17 00:07:38;;;;;;;37.97;23.10;;;;;;;8.57;100.00;103646.88;4882651;29;20028;-86
2023/12/17 00:10:04;;;;;;;39.20;24.13;;;;;;;8.57;100.00;103642.38;4901843;29;20032;-85
2023/12/17 00:12:29;;;;;;;36.35;23.42;;;;;;;8.59;100.00;103638.81;4890287;29;20235;-83
2023/12/17 00:14:55;;;;;;;37.95;24.38;;;;;;;8.57;100.00;103638.84;4903612;29;20028;-84
2023/12/17 00:17:21;;;;;;;35.17;23.73;;;;;;;8.56;100.00;103635.28;4897136;29;20037;-84
2023/12/17 00:19:46;;;;;;;41.00;24.63;;;;;;;8.56;100.00;103639.75;4886558;29;20035;-84
2023/12/17 00:22:11;;;;;;;37.65;22.67;;;;;;;8.56;100.00;103629.00;4899652;29;20052;-85
2023/12/17 00:24:37;;;;;;;38.10;22.98;;;;;;;8.58;100.00;103624.53;4900257;29;20126;-84
2023/12/17 00:27:02;;;;;;;36.78;22.90;;;;;;;8.59;100.00;103631.63;4880410;29;20028;-85
2023/12/17 00:29:27;;;;;;;35.20;23.52;;;;;;;8.57;100.00;103622.75;4905355;29;20395;-84
2023/12/17 00:31:53;;;;;;;36.92;23.10;;;;;;;8.59;100.00;103625.41;4885349;29;20047;-85
2023/12/17 00:34:18;;;;;;;37.50;24.80;;;;;;;8.59;100.00;103626.28;4879708;29;20426;-84
2023/12/17 00:36:43;;;;;;;40.47;24.42;;;;;;;8.58;100.00;103624.53;4900168;29;20040;-84
2023/12/17 00:39:09;;;;;;;37.05;22.30;;;;;;;8.59;100.00;103623.59;4901129;29;20045;-84
2023/12/17 00:41:34;;;;;;;39.05;22.77;;;;;;;8.59;100.00;103614.69;4909127;29;20028;-85
2023/12/17 00:43:59;;;;;;;37.15;23.98;;;;;;;8.58;100.00;103613.81;4884766;29;20093;-85
2023/12/17 00:46:25;;;;;;;36.78;22.85;;;;;;;8.57;100.00;103604.00;4879040;29;20049;-85
2023/12/17 00:48:50;;;;;;;36.33;22.92;;;;;;;8.59;100.00;103612.00;4878282;29;20505;-85
2023/12/17 00:51:15;;;;;;;35.80;22.67;;;;;;;8.59;100.00;103615.53;4883516;29;20040;-84
2023/12/17 00:53:40;;;;;;;38.63;24.02;;;;;;;8.57;100.00;103610.22;4897918;29;20051;-84
2023/12/17 00:56:06;;;;;;;40.90;23.23;;;;;;;8.60;100.00;103614.63;4892674;29;20056;-85
2023/12/17 00:58:31;;;;;;;37.22;23.70;;;;;;;8.59;100.00;103614.69;4897388;29;20084;-83
2023/12/17 01:00:57;;;;;;;38.25;24.15;;;;;;;8.59;100.00;103615.53;4883381;29;20558;-86
2023/12/17 01:03:22;;;;;;;38.03;24.02;;;;;;;8.59;100.00;103609.31;4898285;29;20040;-84
2023/12/17 01:05:47;;;;;;;35.70;22.27;;;;;;;8.60;100.00;103595.88;4898315;29;20039;-85
2023/12/17 01:08:13;;;;;;;38.88;23.08;;;;;;;8.58;100.00;103587.00;4885347;29;20071;-85
2023/12/17 01:10:38;;;;;;;38.55;22.52;;;;;;;8.58;100.00;103587.00;4879190;29;20052;-85
2023/12/17 01:13:04;;;;;;;38.50;23.75;;;;;;;8.58;100.00;103581.63;4891292;29;20075;-80
2023/12/17 01:15:29;;;;;;;36.10;22.17;;;;;;;8.56;100.00;103581.66;4899018;29;20036;-81
2023/12/17 01:17:54;;;;;;;38.22;23.23;;;;;;;8.56;100.00;103581.66;4899757;29;20395;-80
2023/12/17 01:20:19;;;;;;;38.13;23.98;;;;;;;8.59;100.00;103587.88;4881590;29;20084;-81
2023/12/17 01:22:45;;;;;;;42.35;24.75;;;;;;;8.57;100.00;103586.09;4880895;29;20059;-80
2023/12/17 01:25:10;;;;;;;40.38;24.55;;;;;;;8.57;100.00;103585.22;4897688;29;20051;-80
2023/12/17 01:27:35;;;;;;;40.78;24.15;;;;;;;8.60;100.00;103581.59;4897390;29;20140;-81
2023/12/17 01:30:01;;;;;;;36.80;22.13;;;;;;;8.60;100.00;103579.78;4887074;29;20055;-80
2023/12/17 01:32:26;;;;;;;40.10;26.33;;;;;;;8.61;100.00;103581.56;4877196;29;20063;-81
2023/12/17 01:34:51;;;;;;;38.50;23.08;;;;;;;8.59;100.00;103587.88;4880445;29;20099;-80
2023/12/17 01:37:17;;;;;;;39.10;22.80;;;;;;;8.60;100.00;103603.91;4892091;29;20602;-81
2023/12/17 01:39:42;;;;;;;41.38;25.10;;;;;;;8.61;100.00;103597.66;4882797;29;20086;-80
2023/12/17 01:42:07;;;;;;;39.83;24.15;;;;;;;8.61;100.00;103605.69;4876010;29;20589;-81
2023/12/17 01:44:33;;;;;;;36.38;23.02;;;;;;;8.61;100.00;103608.38;4874231;29;20056;-80
2023/12/17 01:46:59;;;;;;;35.42;21.73;;;;;;;8.60;100.00;103595.00;4874900;29;20047;-81
2023/12/17 01:49:24;;;;;;;35.63;21.67;;;;;;;8.60;100.00;103609.28;4885833;29;20028;-81
2023/12/17 01:51:50;;;;;;;36.80;22.90;;;;;;;8.61;100.00;103608.38;4892249;29;20101;-80
2023/12/17 01:54:16;;;;;;;36.13;21.67;;;;;;;8.62;100.00;103611.94;4886095;29;20111;-80
2023/12/17 01:56:42;;;;;;;34.60;21.52;;;;;;;8.62;100.00;103607.44;4883080;29;20036;-80
2023/12/17 01:59:08;;;;;;;36.05;21.95;;;;;;;8.64;100.00;103604.72;4879602;29;20628;-80
2023/12/17 02:01:34;;;;;;;35.17;21.75;;;;;;;8.64;100.00;103613.66;4880750;29;20061;-80
2023/12/17 02:03:59;;;;;;;37.00;22.35;;;;;;;8.62;100.00;103599.41;4895614;29;20029;-80
2023/12/17 02:06:24;;;;;;;35.20;21.40;;;;;;;8.63;100.00;103609.22;4899557;29;20198;-81
2023/12/17 02:08:50;;;;;;;35.55;20.05;;;;;;;8.64;100.00;103616.34;4883149;29;20084;-81
2023/12/17 02:11:15;;;;;;;33.17;20.58;;;;;;;8.65;100.00;103626.13;4900418;29;20515;-81
2023/12/17 02:13:40;;;;;;;34.15;21.10;;;;;;;8.65;100.00;103625.25;4896187;29;20024;-81
2023/12/17 02:16:06;;;;;;;34.10;19.35;;;;;;;8.64;100.00;103618.13;4886239;29;20028;-81
2023/12/17 02:18:31;;;;;;;36.97;21.58;;;;;;;8.63;100.00;103616.38;4898623;29;20029;-81
2023/12/17 02:20:57;;;;;;;33.88;20.40;;;;;;;8.64;100.00;103618.13;4893431;29;20065;-80
2023/12/17 02:23:23;;;;;;;34.75;20.67;;;;;;;8.63;100.00;103614.56;4886720;29;20056;-80
2023/12/17 02:25:48;;;;;;;34.45;20.35;;;;;;;8.63;100.00;103606.53;4902401;29;20052;-80
2023/12/17 02:28:13;;;;;;;35.60;22.20;;;;;;;8.62;100.00;103610.13;4903157;29;20037;-80
2023/12/17 02:30:39;;;;;;;36.42;21.48;;;;;;;8.63;100.00;103602.97;4901108;29;20044;-80
2023/12/17 02:33:04;;;;;;;39.25;21.58;;;;;;;8.62;100.00;103598.53;4900662;29;20028;-80
2023/12/17 02:35:29;;;;;;;37.22;22.98;;;;;;;8.62;100.00;103593.16;4905212;29;20040;-80
2023/12/17 02:37:55;;;;;;;34.88;21.02;;;;;;;8.63;100.00;103601.16;4891226;29;20119;-80
2023/12/17 02:40:20;;;;;;;36.47;20.65;;;;;;;8.64;100.00;103602.94;4902351;29;20124;-80
2023/12/17 02:42:45;;;;;;;36.50;20.17;;;;;;;8.64;100.00;103594.00;4889363;29;20123;-80
2023/12/17 02:45:12;;;;;;;35.08;20.23;;;;;;;8.67;100.00;103607.38;4909196;29;20039;-80
2023/12/17 02:47:37;;;;;;;35.17;21.27;;;;;;;8.66;100.00;103609.16;4886335;29;20132;-80
2023/12/17 02:50:03;;;;;;;36.80;22.55;;;;;;;8.66;100.00;103600.22;4907232;29;20120;-80
2023/12/17 02:52:28;;;;;;;35.60;20.85;;;;;;;8.66;100.00;103595.75;4891200;29;20402;-80
2023/12/17 02:54:53;;;;;;;33.45;19.35;;;;;;;8.66;100.00;103601.09;4889513;29;20028;-80
2023/12/17 02:57:19;;;;;;;31.85;19.35;;;;;;;8.66;100.00;103589.50;4899651;29;20036;-80
2023/12/17 02:59:44;;;;;;;33.75;19.50;;;;;;;8.65;100.00;103593.97;4881820;29;20056;-80
2023/12/17 03:02:09;;;;;;;35.22;20.42;;;;;;;8.65;100.00;103596.66;4878668;29;20429;-79
2023/12/17 03:04:35;;;;;;;33.72;19.25;;;;;;;8.64;100.00;103592.22;4904855;29;20037;-80
2023/12/17 03:07:00;;;;;;;34.55;19.85;;;;;;;8.63;100.00;103595.81;4905879;29;20099;-80
2023/12/17 03:09:25;;;;;;;36.03;19.08;;;;;;;8.59;100.00;103583.38;4888667;29;20111;-79
2023/12/17 03:11:51;;;;;;;31.92;18.88;;;;;;;8.61;100.00;103581.56;4903086;29;20548;-80
2023/12/17 03:14:16;;;;;;;30.35;17.92;;;;;;;8.61;100.00;103584.25;4904501;29;20043;-80
2023/12/17 03:16:42;;;;;;;31.08;17.50;;;;;;;8.61;100.00;103589.59;4889039;29;20127;-80
2023/12/17 03:19:08;;;;;;;29.13;15.40;;;;;;;8.63;100.00;103586.91;4906205;29;20034;-80
2023/12/17 03:21:33;;;;;;;30.13;17.33;;;;;;;8.62;100.00;103590.47;4905985;29;20371;-79
2023/12/17 03:23:58;;;;;;;31.08;16.98;;;;;;;8.61;100.00;103580.66;4886132;29;20096;-80
2023/12/17 03:26:24;;;;;;;27.42;14.38;;;;;;;8.60;100.00;103585.16;4898750;29;20032;-80
2023/12/17 03:28:49;;;;;;;28.92;14.73;;;;;;;8.59;100.00;103577.16;4906653;29;20035;-79
2023/12/17 03:31:16;;;;;;;27.52;14.65;;;;;;;8.60;100.00;103578.91;4897632;29;20025;-80
2023/12/17 03:33:42;;;;;;;26.98;12.90;;;;;;;8.56;100.00;103572.72;4883624;29;20444;-80
2023/12/17 03:36:08;;;;;;;28.17;13.57;;;;;;;8.56;100.00;103572.72;4900476;29;20044;-80
2023/12/17 03:38:33;;;;;;;29.70;13.68;;;;;;;8.56;100.00;103570.03;4888423;29;20055;-79
2023/12/17 03:40:59;;;;;;;27.55;14.27;;;;;;;8.55;100.00;103571.84;4907343;29;20032;-80
2023/12/17 03:43:24;;;;;;;27.77;13.32;;;;;;;8.54;100.00;103578.13;4887087;29;20093;-79
2023/12/17 03:45:50;;;;;;;25.27;12.70;;;;;;;8.54;100.00;103575.44;4872061;29;20036;-80
2023/12/17 03:48:15;;;;;;;28.13;12.82;;;;;;;8.52;100.00;103571.91;4908567;29;20060;-80
2023/12/17 03:50:40;;;;;;;24.55;11.63;;;;;;;8.51;100.00;103569.28;4887250;29;20029;-80
2023/12/17 03:53:10;;;;;;;25.00;11.52;;;;;;;8.49;100.00;103563.94;4906008;29;20406;-79
2023/12/17 03:55:36;;;;;;;26.15;12.60;;;;;;;8.49;100.00;103563.94;4884673;29;20492;-79
2023/12/17 03:58:02;;;;;;;24.35;11.63;;;;;;;8.49;100.00;103555.91;4901890;29;20073;-80
2023/12/17 04:00:27;;;;;;;23.98;11.48;;;;;;;8.50;100.00;103556.78;4908208;29;20051;-79
2023/12/17 04:02:52;;;;;;;23.55;11.02;;;;;;;8.48;100.00;103554.13;4913613;29;20048;-80
2023/12/17 04:05:18;;;;;;;25.65;11.32;;;;;;;8.48;100.00;103553.25;4905998;29;20107;-79
2023/12/17 04:07:43;;;;;;;25.55;12.38;;;;;;;8.48;100.00;103546.09;4900741;29;20112;-79
2023/12/17 04:10:08;;;;;;;24.85;11.43;;;;;;;8.48;100.00;103545.22;4906025;29;20456;-79
2023/12/17 04:12:34;;;;;;;23.25;11.82;;;;;;;8.49;100.00;103544.28;4895680;29;20279;-79
2023/12/17 04:14:59;;;;;;;24.33;10.88;;;;;;;8.48;100.00;103538.06;4881978;29;20132;-80
2023/12/17 04:17:24;;;;;;;24.10;10.95;;;;;;;8.48;100.00;103545.22;4904883;29;20028;-79
2023/12/17 04:19:50;;;;;;;24.42;11.00;;;;;;;8.47;100.00;103538.94;4903459;29;20032;-79
2023/12/17 04:22:15;;;;;;;24.50;12.02;;;;;;;8.46;100.00;103545.22;4906060;29;20134;-80
2023/12/17 04:24:40;;;;;;;24.45;11.48;;;;;;;8.47;100.00;103540.75;4906204;29;20401;-79
2023/12/17 04:27:06;;;;;;;24.95;11.85;;;;;;;8.45;100.00;103538.13;4882097;29;20119;-80
2023/12/17 04:29:32;;;;;;;25.65;12.10;;;;;;;8.45;100.00;103545.25;4887645;29;20142;-80
2023/12/17 04:31:57;;;;;;;25.95;11.93;;;;;;;8.45;100.00;103532.75;4905162;29;20037;-80
2023/12/17 04:34:23;;;;;;;24.70;11.73;;;;;;;8.44;100.00;103527.41;4901721;29;20024;-80
2023/12/17 04:36:48;;;;;;;27.58;12.93;;;;;;;8.43;100.00;103525.63;4885621;29;20032;-80
2023/12/17 04:39:14;;;;;;;25.55;12.73;;;;;;;8.40;100.00;103529.25;4899694;29;20044;-79
2023/12/17 04:41:40;;;;;;;24.38;11.43;;;;;;;8.39;100.00;103531.06;4910184;29;20068;-84
2023/12/17 04:44:07;;;;;;;25.42;12.27;;;;;;;8.39;100.00;103535.53;4901220;29;20131;-85
2023/12/17 04:46:33;;;;;;;28.30;12.43;;;;;;;8.37;100.00;103538.22;4898438;29;20037;-84
2023/12/17 04:48:58;;;;;;;25.30;12.70;;;;;;;8.38;100.00;103534.63;4882318;29;20360;-86
2023/12/17 04:51:25;;;;;;;25.63;12.07;;;;;;;8.38;100.00;103537.31;4902336;29;20115;-83
2023/12/17 04:53:51;;;;;;;25.88;12.63;;;;;;;8.38;100.00;103539.13;4880845;29;20028;-85
2023/12/17 04:56:17;;;;;;;28.25;13.48;;;;;;;8.36;100.00;103532.91;4881825;29;20499;-85
2023/12/17 04:58:43;;;;;;;24.33;11.32;;;;;;;8.35;100.00;103532.03;4880759;29;20433;-83
2023/12/17 05:01:08;;;;;;;27.33;12.95;;;;;;;8.34;100.00;103534.75;4899427;29;20172;-83
2023/12/17 05:03:34;;;;;;;28.00;12.43;;;;;;;8.32;100.00;103532.09;4899327;29;20036;-84
2023/12/17 05:05:59;;;;;;;27.35;12.82;;;;;;;8.32;100.00;103532.09;4882540;29;20115;-82
2023/12/17 05:08:24;;;;;;;24.77;12.13;;;;;;;8.31;100.00;103530.31;4885654;29;20358;-85
2023/12/17 05:10:50;;;;;;;26.25;12.80;;;;;;;8.33;100.00;103523.16;4889589;29;20096;-84
2023/12/17 05:13:15;;;;;;;29.88;14.35;;;;;;;8.32;100.00;103518.69;4893709;29;20029;-84
2023/12/17 05:15:41;;;;;;;28.35;13.55;;;;;;;8.33;100.00;103520.47;4883946;29;20032;-83
2023/12/17 05:18:06;;;;;;;28.60;12.73;;;;;;;8.33;100.00;103523.16;4902087;29;20058;-83
2023/12/17 05:20:32;;;;;;;24.90;12.80;;;;;;;8.32;100.00;103526.72;4907104;29;20463;-85
2023/12/17 05:22:57;;;;;;;26.02;12.35;;;;;;;8.32;100.00;103525.88;4902334;29;20488;-84
2023/12/17 05:25:22;;;;;;;27.63;13.38;;;;;;;8.32;100.00;103528.53;4878407;29;20036;-83
2023/12/17 05:27:47;;;;;;;29.02;14.27;;;;;;;8.30;100.00;103520.53;4902088;29;20037;-83
2023/12/17 05:30:13;;;;;;;26.83;13.45;;;;;;;8.32;100.00;103525.88;4900085;29;20116;-84
2023/12/17 05:32:39;;;;;;;28.77;14.50;;;;;;;8.30;100.00;103522.31;4879722;29;20029;-85
2023/12/17 05:35:05;;;;;;;26.27;13.63;;;;;;;8.30;100.00;103525.00;4891191;29;20119;-86
2023/12/17 05:37:30;;;;;;;27.00;13.85;;;;;;;8.29;100.00;103518.75;4876894;29;20075;-82
2023/12/17 05:39:55;;;;;;;26.73;12.80;;;;;;;8.32;100.00;103525.88;4885753;29;20024;-85
2023/12/17 05:42:21;;;;;;;26.58;13.52;;;;;;;8.31;100.00;103530.31;4897200;29;20131;-84
2023/12/17 05:44:46;;;;;;;26.05;13.45;;;;;;;8.30;100.00;103525.91;4874888;29;20032;-84
2023/12/17 05:47:12;;;;;;;27.75;13.40;;;;;;;8.30;100.00;103523.22;4901913;29;20032;-84
2023/12/17 05:49:40;;;;;;;29.15;14.05;;;;;;;8.31;100.00;103533.00;4891894;29;20149;-84
2023/12/17 05:52:07;;;;;;;25.48;12.43;;;;;;;8.30;100.00;103525.91;4881392;29;20096;-85
2023/12/17 05:54:33;;;;;;;24.92;12.07;;;;;;;8.28;100.00;103519.66;4895058;29;20052;-84
2023/12/17 05:56:59;;;;;;;23.30;10.48;;;;;;;8.26;100.00;103518.81;4903663;29;20461;-84
2023/12/17 05:59:24;;;;;;;25.58;11.30;;;;;;;8.25;100.00;103513.50;4898345;29;20043;-81
2023/12/17 06:01:50;;;;;;;24.88;11.63;;;;;;;8.23;100.00;103510.84;4872462;29;20030;-83
2023/12/17 06:04:15;;;;;;;24.65;11.02;;;;;;;8.25;100.00;103513.50;4900280;29;20025;-84
2023/12/17 06:06:40;;;;;;;24.02;10.85;;;;;;;8.21;100.00;103501.94;4899033;29;20083;-85
2023/12/17 06:09:06;;;;;;;22.77;10.43;;;;;;;8.19;100.00;103504.66;4872810;29;20112;-83
2023/12/17 06:11:32;;;;;;;22.63;9.32;;;;;;;8.20;100.00;103516.28;4893247;29;20035;-83
2023/12/17 06:13:57;;;;;;;22.20;9.43;;;;;;;8.20;100.00;103516.28;4884146;29;20028;-81
2023/12/17 06:16:22;;;;;;;24.88;9.20;;;;;;;8.17;100.00;103514.53;4898447;29;20032;-83
2023/12/17 06:18:49;;;;;;;20.67;8.77;;;;;;;8.17;100.00;103510.97;4895785;29;20040;-85
2023/12/17 06:21:25;;;;;;;23.13;9.10;;;;;;;8.17;100.00;103522.56;4898582;29;20028;-84
2023/12/17 06:23:51;;;;;;;22.30;8.70;;;;;;;8.16;100.00;103520.81;4900278;29;20074;-85
2023/12/17 06:26:20;;;;;;;21.85;8.40;;;;;;;8.16;100.00;103523.47;4881848;29;20036;-84
2023/12/17 06:28:46;;;;;;;22.75;9.52;;;;;;;8.18;100.00;103523.44;4878388;29;20571;-85
2023/12/17 06:31:12;;;;;;;21.85;9.07;;;;;;;8.18;100.00;103535.03;4896707;29;20115;-85
2023/12/17 06:33:37;;;;;;;22.73;10.35;;;;;;;8.19;100.00;103528.78;4898430;29;20111;-84
2023/12/17 06:36:03;;;;;;;21.83;9.00;;;;;;;8.20;100.00;103518.97;4903241;29;20128;-85
2023/12/17 06:38:28;;;;;;;21.63;9.32;;;;;;;8.20;100.00;103521.63;4876643;29;20048;-86
2023/12/17 06:40:54;;;;;;;20.45;8.77;;;;;;;8.21;100.00;103523.38;4896780;29;20032;-84
2023/12/17 06:43:19;;;;;;;24.83;9.15;;;;;;;8.21;100.00;103524.28;4898427;29;20020;-84
2023/12/17 06:45:45;;;;;;;21.27;9.50;;;;;;;8.21;100.00;103523.38;4895816;29;20044;-83
2023/12/17 06:48:10;;;;;;;23.17;9.30;;;;;;;8.21;100.00;103521.59;4903199;29;20319;-85
2023/12/17 06:50:35;;;;;;;27.17;11.20;;;;;;;8.19;100.00;103525.22;4893736;29;20504;-84
2023/12/17 06:53:01;;;;;;;24.13;10.30;;;;;;;8.18;100.00;103531.47;4873463;29;20491;-85
2023/12/17 06:55:29;;;;;;;22.70;9.93;;;;;;;8.17;100.00;103525.25;4900574;29;20040;-84
2023/12/17 06:57:54;;;;;;;22.58;9.93;;;;;;;8.17;100.00;103517.22;4885118;29;20040;-85
2023/12/17 07:00:19;;;;;;;23.80;10.38;;;;;;;8.17;100.00;103521.66;4880670;29;20518;-84
2023/12/17 07:02:45;;;;;;;25.08;12.13;;;;;;;8.16;100.00;103510.09;4898201;29;20032;-80
2023/12/17 07:05:11;;;;;;;25.70;11.98;;;;;;;8.14;100.00;103511.03;4915239;29;20094;-78
2023/12/17 07:07:36;;;;;;;26.23;12.75;;;;;;;8.13;100.00;103503.91;4905933;29;20039;-79
2023/12/17 07:10:01;;;;;;;24.13;11.30;;;;;;;8.10;100.00;103520.06;4913757;29;20036;-79
2023/12/17 07:12:27;;;;;;;22.38;10.48;;;;;;;8.07;100.00;103506.69;4904067;29;20046;-79
2023/12/17 07:14:52;;;;;;;23.67;10.38;;;;;;;8.05;100.00;103520.13;4906365;29;20036;-78
2023/12/17 07:17:18;;;;;;;22.95;10.80;;;;;;;8.04;100.00;103519.25;4906065;29;20048;-78
2023/12/17 07:19:43;;;;;;;21.95;9.60;;;;;;;8.03;100.00;103517.47;4894660;29;20037;-80
2023/12/17 07:22:09;;;;;;;23.35;9.93;;;;;;;8.02;100.00;103521.09;4908115;29;20036;-78
2023/12/17 07:24:34;;;;;;;23.60;9.75;;;;;;;8.03;100.00;103521.97;4909528;29;20037;-80
2023/12/17 07:27:00;;;;;;;23.63;11.00;;;;;;;8.02;100.00;103523.78;4907340;29;20050;-79
2023/12/17 07:29:25;;;;;;;22.17;9.38;;;;;;;8.01;100.00;103532.72;4908673;29;20506;-79
2023/12/17 07:31:50;;;;;;;23.50;10.65;;;;;;;8.01;100.00;103519.31;4909021;29;20044;-81
2023/12/17 07:34:16;;;;;;;23.65;10.45;;;;;;;8.00;100.00;103522.91;4906760;29;20439;-78
2023/12/17 07:36:41;;;;;;;25.08;10.20;;;;;;;7.98;100.00;103519.38;4910914;29;20066;-80
2023/12/17 07:39:07;;;;;;;24.65;10.90;;;;;;;7.98;100.00;103516.69;4891597;29;20572;-79
2023/12/17 07:41:32;;;;;;;23.73;10.57;;;;;;;8.00;100.00;103530.94;4887416;29;20492;-78
2023/12/17 07:43:58;;;;;;;26.13;12.85;;;;;;;7.97;100.00;103536.34;4889299;29;20056;-78
2023/12/17 07:46:23;;;;;;;22.85;9.60;;;;;;;7.96;100.00;103531.03;4910637;29;20528;-78
2023/12/17 07:48:48;;;;;;;24.85;10.43;;;;;;;7.96;100.00;103539.94;4909705;29;20403;-79
2023/12/17 07:51:13;;;;;;;24.70;10.73;;;;;;;7.96;100.00;103541.75;4904550;29;20485;-79
2023/12/17 07:53:39;;;;;;;24.30;10.68;;;;;;;7.94;100.00;103538.22;4892313;29;20021;-78
2023/12/17 07:56:07;;;;;;;25.17;10.65;;;;;;;7.94;100.00;103533.72;4884841;29;20147;-80
2023/12/17 07:58:32;;;;;;;23.45;9.15;;;;;;;7.93;100.00;103542.66;4897629;29;20034;-80
2023/12/17 08:00:58;;;;;;;22.63;9.43;;;;;;;7.91;100.00;103532.94;4909714;29;20118;-78
2023/12/17 08:03:23;;;;;;;22.55;10.00;;;;;;;7.90;100.00;103534.69;4884599;29;20029;-80
2023/12/17 08:05:49;;;;;;;24.90;10.10;;;;;;;7.90;100.00;103555.25;4909469;29;20038;-79
2023/12/17 08:08:15;;;;;;;23.05;8.77;;;;;;;7.89;100.00;103549.00;4911143;29;20028;-78
2023/12/17 08:10:40;;;;;;;21.77;8.05;;;;;;;7.86;100.00;103541.00;4895364;29;20032;-80
2023/12/17 08:13:06;;;;;;;21.80;8.38;;;;;;;7.87;100.00;103549.03;4915201;29;20520;-79
2023/12/17 08:15:31;;;;;;;21.40;8.70;;;;;;;7.83;100.00;103543.75;4899702;29;20034;-79
2023/12/17 08:17:56;;;;;;;22.92;9.30;;;;;;;7.80;100.00;103547.38;4910244;29;20036;-80
2023/12/17 08:20:22;;;;;;;21.65;9.20;;;;;;;7.76;100.00;103547.44;4892830;29;20032;-80
2023/12/17 08:22:47;;;;;;;21.52;8.65;;;;;;;7.73;100.00;103539.47;4909915;29;20079;-80
2023/12/17 08:25:12;;;;;;;23.00;8.93;;;;;;;7.72;100.00;103549.31;4903827;29;20029;-79
2023/12/17 08:27:37;;;;;;;21.95;9.48;;;;;;;7.72;100.00;103548.41;4906525;29;20039;-80
2023/12/17 08:30:03;;;;;;;23.13;9.45;;;;;;;7.72;100.00;103541.28;4893186;29;20044;-79
2023/12/17 08:32:32;;;;;;;23.67;9.85;;;;;;;7.72;100.00;103554.66;4905888;29;20028;-79
2023/12/17 08:35:01;;;;;;;22.63;9.52;;;;;;;7.66;100.00;103555.66;4884045;29;20033;-79
2023/12/17 08:37:26;;;;;;;24.92;10.20;;;;;;;7.65;100.00;103545.84;4885887;29;20079;-80
2023/12/17 08:39:53;;;;;;;22.02;9.27;;;;;;;7.63;100.00;103563.75;4898760;29;20031;-79
2023/12/17 08:42:18;;;;;;;22.75;9.15;;;;;;;7.62;100.00;103559.28;4886401;29;20063;-80
2023/12/17 08:44:45;;;;;;;22.35;9.45;;;;;;;7.61;100.00;103556.66;4905018;29;20100;-80
2023/12/17 08:47:11;;;;;;;23.30;10.50;;;;;;;7.60;100.00;103563.81;4876364;29;20036;-80
2023/12/17 08:49:36;;;;;;;25.38;10.55;;;;;;;7.59;100.00;103561.16;4882498;29;20035;-79
2023/12/17 08:52:01;;;;;;;25.50;11.50;;;;;;;7.57;100.00;103557.59;4895555;29;21096;-80
2023/12/17 08:54:27;;;;;;;23.75;10.52;;;;;;;7.54;100.00;103561.25;4903169;29;20037;-79
2023/12/17 08:56:52;;;;;;;20.20;8.52;;;;;;;7.52;100.00;103560.34;4901654;29;20087;-80
2023/12/17 08:59:17;;;;;;;23.55;9.05;;;;;;;7.49;100.00;103563.97;4903955;29;20092;-81
2023/12/17 09:01:43;;;;;;;23.63;10.15;;;;;;;7.49;100.00;103563.97;4901200;29;20036;-80
2023/12/17 09:04:08;;;;;;;22.20;10.27;;;;;;;7.50;100.00;103564.88;4904632;29;20048;-80
2023/12/17 09:06:47;;;;;;;26.45;10.82;;;;;;;7.51;100.00;103554.13;4906292;29;20044;-79
2023/12/17 09:09:13;;;;;;;25.90;10.82;;;;;;;7.51;100.00;103563.94;4903367;29;20055;-80
2023/12/17 09:11:39;;;;;;;24.42;10.50;;;;;;;7.52;100.00;103563.91;4887944;29;20028;-79
2023/12/17 09:14:07;;;;;;;24.77;10.25;;;;;;;7.51;100.00;103558.59;4897404;29;20021;-80
2023/12/17 09:16:33;;;;;;;24.20;10.30;;;;;;;7.48;100.00;103558.63;4901113;29;20025;-80
2023/12/17 09:18:58;;;;;;;23.95;10.65;;;;;;;7.46;100.00;103566.69;4896427;29;20033;-79
2023/12/17 09:21:24;;;;;;;28.98;11.73;;;;;;;7.42;100.00;103562.28;4895037;29;20132;-79
2023/12/17 09:23:50;;;;;;;28.70;12.60;;;;;;;7.40;100.00;103565.94;4899667;29;20380;-79
2023/12/17 09:26:15;;;;;;;26.95;12.75;;;;;;;7.38;100.00;103567.72;4896392;29;20020;-78
2023/12/17 09:28:41;;;;;;;26.15;12.18;;;;;;;7.37;100.00;103572.19;4905763;29;20033;-79
2023/12/17 09:31:08;;;;;;;27.02;12.07;;;;;;;7.34;100.00;103558.88;4889373;29;20036;-79
2023/12/17 09:33:35;;;;;;;27.98;13.27;;;;;;;7.34;100.00;103569.59;4896654;29;20035;-79
2023/12/17 09:36:00;;;;;;;26.17;12.57;;;;;;;7.33;100.00;103565.13;4902905;29;20039;-78
2023/12/17 09:38:26;;;;;;;29.63;14.30;;;;;;;7.31;100.00;103561.59;4902395;29;20389;-79
2023/12/17 09:40:52;;;;;;;30.52;12.75;;;;;;;7.30;100.00;103581.22;4906097;29;20058;-78
2023/12/17 09:43:20;;;;;;;29.00;13.55;;;;;;;7.28;100.00;103573.22;4907928;29;20024;-79
2023/12/17 09:45:45;;;;;;;28.58;14.38;;;;;;;7.28;100.00;103573.22;4894803;29;20028;-79
2023/12/17 09:48:11;;;;;;;28.17;14.02;;;;;;;7.29;100.00;103568.75;4904480;29;20025;-79
2023/12/17 09:50:36;;;;;;;31.10;14.85;;;;;;;7.28;100.00;103567.00;4908933;29;20039;-79
2023/12/17 09:53:01;;;;;;;27.92;14.98;;;;;;;7.26;100.00;103564.38;4886200;29;20035;-79
2023/12/17 09:55:27;;;;;;;28.23;13.88;;;;;;;7.25;100.00;103570.59;4907434;29;20053;-79
2023/12/17 09:57:52;;;;;;;28.88;13.85;;;;;;;7.20;100.00;103563.56;4889727;29;20202;-79
2023/12/17 10:00:18;;;;;;;28.70;13.95;;;;;;;7.21;100.00;103570.69;4906518;29;20111;-78
2023/12/17 10:02:44;;;;;;;27.05;13.70;;;;;;;7.20;100.00;103572.44;4888090;29;20419;-78
2023/12/17 10:05:09;;;;;;;28.75;13.57;;;;;;;7.17;100.00;103567.16;4891542;29;20484;-79
2023/12/17 10:07:37;;;;;;;30.15;14.90;;;;;;;7.16;100.00;103568.97;4885578;29;20033;-78
2023/12/17 10:10:03;;;;;;;29.65;14.60;;;;;;;7.17;100.00;103567.16;4902957;29;20033;-79
2023/12/17 10:12:29;;;;;;;27.58;15.48;;;;;;;7.15;100.00;103568.97;4911762;29;20418;-78
2023/12/17 10:14:55;;;;;;;30.67;14.77;;;;;;;7.16;100.00;103568.97;4911731;29;20060;-79
2023/12/17 10:17:20;;;;;;;30.02;14.73;;;;;;;7.16;100.00;103570.75;4909935;29;20417;-78
2023/12/17 10:19:51;;;;;;;32.22;15.32;;;;;;;7.15;100.00;103571.66;4883632;29;20100;-79
2023/12/17 10:22:16;;;;;;;34.13;17.08;;;;;;;7.15;100.00;103571.66;4882808;29;20047;-79
2023/12/17 10:24:42;;;;;;;35.30;17.05;;;;;;;7.16;100.00;103573.44;4902465;29;20025;-77
2023/12/17 10:27:31;;;;;;;35.97;18.33;;;;;;;7.17;100.00;103570.72;4909683;29;20036;-78
2023/12/17 10:30:00;;;;;;;32.47;16.33;;;;;;;7.17;100.00;103569.84;4902196;29;20044;-78
2023/12/17 10:32:26;;;;;;;33.80;18.10;;;;;;;7.17;100.00;103565.38;4891175;29;20413;-80
2023/12/17 10:34:53;;;;;;;36.42;17.92;;;;;;;7.20;100.00;103563.56;4891618;29;20033;-80
2023/12/17 10:37:20;;;;;;;34.42;18.52;;;;;;;7.20;100.00;103563.56;4896745;29;20074;-80
2023/12/17 10:39:50;;;;;;;34.47;18.52;;;;;;;7.24;100.00;103562.59;4897685;29;20094;-79
2023/12/17 10:42:19;;;;;;;38.20;18.63;;;;;;;7.30;100.00;103557.16;4904366;29;20046;-79
2023/12/17 10:44:50;;;;;;;36.38;18.20;;;;;;;7.35;100.00;103556.19;4908841;29;20051;-80
2023/12/17 10:47:20;;;;;;;35.25;18.65;;;;;;;7.35;100.00;103542.81;4906008;29;20119;-80
2023/12/17 10:49:46;;;;;;;36.42;18.88;;;;;;;7.40;100.00;103545.41;4909613;29;20047;-80
2023/12/17 10:52:12;;;;;;;33.67;18.65;;;;;;;7.43;100.00;103541.78;4883974;29;20036;-80
2023/12/17 10:54:38;;;;;;;34.50;19.63;;;;;;;7.49;100.00;103533.66;4902213;29;20409;-80
2023/12/17 10:57:07;;;;;;;38.33;18.45;;;;;;;7.54;100.00;103529.13;4910863;29;20096;-80
2023/12/17 10:59:36;;;;;;;34.13;18.20;;;;;;;7.56;100.00;103529.97;4887461;29;20028;-80
2023/12/17 11:02:04;;;;;;;;;;;;;;;7.60;100.00;103538.81;4902550;29;20059;-79
2023/12/17 11:04:29;;;;;;;30.67;15.63;;;;;;;7.54;100.00;103526.44;4908958;29;19927;-80